Terminal Aerodrome Forecast
Issued by NWS Indianapolis, IN

Home | Current Version | Previous Version | Text Only | Print | Product List | Glossary On
Versions: 1 2 3 4 5 6 7 8 9 10 11 12 13 14 15 16 17 18 19 20 21 22 23 24 25 26 27 28 29 30
000
FTUS43 KIND 301742
TAFIND
TAF
KIND 301742Z 3018/0124 11010KT 3SM -SHRA OVC008
      TEMPO 3018/3019 1 1/2SM SHRA
     FM302000 13010G18KT 3SM -SHRA VCTS OVC008CB
     FM010300 17007KT P6SM VCSH OVC040
     FM010600 20007KT P6SM VCSH BKN015
     FM010900 24006KT 4SM BR BKN008
     FM011200 28005KT 4SM BR VCSH BKN008
     FM011800 25005KT 4SM -SHRA BKN015=

USA.gov is the U.S. government's official web portal to all federal, state and local government web resources and services.